Aérodrome :
LOGIN :

S'inscrire | Disclaimer

   EN    FR    IT 

 










Légende :    VFR   VFR Marginal   IFR   IFR Intensif   IFR Très Intensif
Visi : 
Plafond : 
>= 8 km
>= 3000ft
5 à 8 km
1000 à 3000 ft
1500m à 5 km
500 à 1000 ft
800 à 1500m
200 à 500 ft
< 800m
< 200 ft
Symboles :   Orages  Brouillard  Fortes neiges  Fortes précipitations  Vent > 20 kt
SIGMETs :   Divers  Orages  Givrage  Turbulence  Onde Orograph.  Cendres Volcan.







- Altitude de l'aérodrome : 97 ft
- Code IATA : EBJ


EKEB - Esbjerg

DERNIER METAR :
  • 300250Z AUTO 10007KT 5000NDV NCD 02/01 Q1020

METARs EXPIRÉS :
  • 300220Z AUTO 10008KT 6000NDV NCD 02/01 Q1020
  • 300150Z AUTO 10006KT 7000NDV NCD 02/01 Q1020
  • 300120Z AUTO 10005KT 8000NDV NCD 02/01 Q1020
  • 300050Z AUTO 10006KT 9000NDV NCD 02/02 Q1020
  • 300020Z AUTO 10006KT 9999NDV NCD 02/01 Q1020

TAF TAF EKEB
Valide du 30 à 03h jusqu'au 30 à 12h UTC


300252Z 3003/3012 10008KT 5000 MIFG FEW010
FM300700 13015KT 9999 SCT030
Pas de NOTAMs connus pour ce terrain.



MET'MAP, la Météo Aéronautique d'un coup d'oeil ! - Copyright ORBIFLY Décembre 2007 - Disclaimer

ORBIFLY MET'MAP TEAM :

Programmation & Développement : Alexandra Zaïnal
Conception & Développement : Baudouin d'Aumeries
Co-Programmation & Développement : Marc-Olivier Méhu
Soutien technique & logistique : Manuel Goepfert

Contact : metmap@orbifly.com




SOURCES & CREDITS :

   NOAA